CST,Max TemperatureF,Mean TemperatureF,Min TemperatureF,Max Dew PointF,MeanDew PointF,Min DewpointF,Max Humidity, Mean Humidity, Min Humidity, Max Sea Level PressureIn, Mean Sea Level PressureIn, Min Sea Level PressureIn, Max VisibilityMiles, Mean VisibilityMiles, Min VisibilityMiles, Max Wind SpeedMPH, Mean Wind SpeedMPH, Max Gust SpeedMPH,PrecipitationIn, CloudCover, Events, WindDirDegrees
2012-11-1,83,67,50,57,53,47,89,62,34,30.06,30.00,29.95,10,9,6,9,5,10,0.00,0,,186
2012-11-2,83,71,58,62,58,54,93,67,40,30.04,29.98,29.95,10,9,4,14,8,17,0.00,0,,197
2012-11-3,82,72,61,67,62,57,100,76,51,30.12,30.06,29.99,10,7,0,22,7,28,0.00,2,Fog-Thunderstorm,190
2012-11-4,75,66,56,58,56,53,93,73,53,30.13,30.08,30.04,10,10,8,12,4,15,0.00,1,,55
2012-11-5,76,65,53,57,48,35,93,64,35,30.08,30.04,29.99,10,8,3,17,6,23,0.00,0,,325
2012-11-6,70,57,44,45,40,34,83,55,26,30.17,30.10,30.06,10,9,6,10,5,15,0.00,0,,321
2012-11-7,73,59,45,44,39,31,86,54,22,30.20,30.14,30.11,10,10,9,9,3,13,0.00,0,,345
2012-11-8,77,63,48,54,45,39,77,58,38,30.19,30.11,30.05,10,10,9,17,10,23,0.00,0,,153
2012-11-9,81,68,55,61,56,52,93,68,42,30.12,30.07,29.99,10,10,9,22,13,31,0.00,2,,174
2012-11-10,81,70,59,60,58,55,97,71,45,30.08,30.01,29.93,10,9,5,28,13,36,0.00,2,,163
2012-11-11,76,64,52,68,62,45,90,82,74,30.22,29.95,29.87,10,8,1,25,12,32,0.28,7,Rain-Thunderstorm,218
2012-11-12,59,48,37,43,31,21,85,54,23,30.50,30.41,30.25,10,10,5,15,6,20,0.00,1,,4
2012-11-13,57,45,33,34,29,22,89,58,26,30.54,30.45,30.38,10,10,9,17,3,23,0.00,1,,84
2012-11-14,61,51,40,39,31,23,79,51,23,30.46,30.38,30.32,10,10,10,12,2,16,0.00,1,,40
2012-11-15,61,48,34,35,31,27,82,55,27,30.36,30.32,30.26,10,10,8,10,3,13,0.00,0,,77
2012-11-16,63,49,35,35,30,23,89,55,21,30.43,30.37,30.34,10,10,7,14,4,21,0.00,0,,53
2012-11-17,67,51,34,36,32,29,82,54,26,30.43,30.36,30.32,10,9,6,9,3,14,0.00,0,,118
2012-11-18,70,56,41,38,35,33,76,51,26,30.34,30.29,30.23,10,10,9,13,7,16,0.00,0,,138
2012-11-19,71,60,49,48,42,37,71,54,36,30.28,30.22,30.16,10,9,5,17,7,20,0.00,4,,166
2012-11-20,78,66,53,55,50,42,80,61,42,30.22,30.18,30.13,10,10,7,9,3,12,0.00,1,,182
2012-11-21,80,65,49,54,47,36,93,57,21,30.30,30.21,30.17,10,8,3,9,3,14,0.00,0,,136
2012-11-22,76,63,50,54,49,44,80,59,38,30.19,30.13,30.07,10,10,8,18,8,23,T,0,Rain,172
2012-11-23,68,57,46,55,41,22,87,54,20,30.42,30.30,30.14,10,10,8,21,9,26,0.00,5,,10
2012-11-24,60,47,33,30,24,17,64,43,21,30.44,30.31,30.16,10,10,10,12,4,16,0.00,0,,117
2012-11-25,72,55,37,55,40,30,78,56,33,30.15,30.02,29.93,10,10,10,21,10,26,0.00,0,,179
2012-11-26,80,66,51,63,57,40,90,69,48,30.16,29.98,29.90,10,10,9,22,11,30,0.00,6,,203
2012-11-27,62,51,40,43,39,36,82,62,42,30.40,30.31,30.20,10,10,8,18,7,26,0.00,4,,356
2012-11-28,64,50,35,37,33,31,92,61,30,30.49,30.38,30.30,10,10,9,12,5,15,0.00,0,,142
2012-11-29,69,54,38,46,39,34,92,63,34,30.32,30.24,30.16,10,10,8,14,7,17,0.00,0,,162
2012-11-30,72,60,48,59,54,45,100,83,66,30.22,30.15,30.09,10,7,0,16,8,20,0.00,5,Fog,159